createdAt,value
2019-04-30T00:00:45.271Z,4.40
2019-04-30T00:03:25.029Z,4.57
2019-04-30T00:05:57.324Z,4.53
2019-04-30T00:08:30.172Z,4.40
2019-04-30T00:10:57.409Z,5.03
2019-04-30T00:13:26.978Z,4.60
2019-04-30T00:15:58.723Z,4.20
2019-04-30T00:18:30.785Z,4.80
2019-04-30T00:21:00.207Z,4.70
2019-04-30T00:23:30.963Z,4.50
2019-04-30T00:26:08.188Z,4.53
2019-04-30T00:28:35.399Z,4.80
2019-04-30T00:31:05.497Z,4.80
2019-04-30T00:33:36.083Z,4.97
2019-04-30T00:36:06.100Z,4.80
2019-04-30T00:38:39.108Z,4.57
2019-04-30T00:41:11.519Z,4.83
2019-04-30T00:43:49.664Z,4.60
2019-04-30T00:46:17.291Z,4.60
2019-04-30T00:48:46.766Z,4.57
2019-04-30T00:51:21.416Z,4.37
2019-04-30T00:53:52.489Z,4.93
2019-04-30T00:56:24.746Z,4.43
2019-04-30T00:58:57.425Z,5.00
2019-04-30T01:01:50.788Z,4.87
2019-04-30T01:04:28.312Z,5.10
2019-04-30T01:07:04.572Z,4.97
2019-04-30T01:09:31.857Z,5.50
2019-04-30T01:12:01.356Z,5.27
2019-04-30T01:14:32.225Z,5.33
2019-04-30T01:17:03.882Z,4.60
2019-04-30T01:19:33.306Z,5.27
2019-04-30T01:22:02.984Z,5.00
2019-04-30T01:24:34.308Z,5.63
2019-04-30T01:27:06.685Z,5.00
2019-04-30T01:29:41.458Z,4.90
2019-04-30T01:32:10.452Z,5.30
2019-04-30T01:34:44.365Z,5.37
2019-04-30T01:37:11.579Z,5.83
2019-04-30T01:39:42.788Z,4.97
2019-04-30T01:42:14.842Z,5.67
2019-04-30T01:44:50.384Z,5.70
2019-04-30T01:47:16.439Z,5.73
2019-04-30T01:49:45.822Z,5.60
2019-04-30T01:52:16.776Z,5.57
2019-04-30T01:54:46.183Z,5.93
2019-04-30T01:57:39.042Z,5.63
2019-04-30T02:00:19.582Z,5.83
2019-04-30T02:02:49.643Z,6.07
2019-04-30T02:05:19.160Z,5.47
2019-04-30T02:07:48.779Z,6.40
2019-04-30T02:10:19.526Z,5.73
2019-04-30T02:12:50.917Z,6.40
2019-04-30T02:15:20.425Z,6.20
2019-04-30T02:17:50.521Z,5.57
2019-04-30T02:20:20.226Z,6.40
2019-04-30T02:22:50.799Z,6.50
2019-04-30T02:25:22.766Z,6.77
2019-04-30T02:27:53.539Z,6.40
2019-04-30T02:30:25.836Z,6.47
2019-04-30T02:33:00.632Z,7.00
2019-04-30T02:35:52.282Z,6.97
2019-04-30T02:38:30.268Z,6.33
2019-04-30T02:41:02.766Z,6.77
2019-04-30T02:43:33.888Z,6.50
2019-04-30T02:46:05.914Z,7.07
2019-04-30T02:48:39.872Z,6.80
2019-04-30T02:51:12.093Z,7.43
2019-04-30T02:54:29.682Z,7.77
2019-04-30T02:57:25.616Z,8.60
2019-04-30T03:00:05.940Z,7.87
2019-04-30T03:02:35.776Z,9.10
2019-04-30T03:05:10.213Z,8.50
2019-04-30T03:07:41.068Z,8.57
2019-04-30T03:10:13.135Z,8.67
2019-04-30T03:12:42.801Z,8.97
2019-04-30T03:15:12.514Z,9.75
2019-04-30T03:18:13.468Z,9.33
2019-04-30T03:20:54.379Z,9.50
2019-04-30T03:23:24.032Z,9.17
2019-04-30T03:25:54.612Z,9.10
2019-04-30T03:28:24.393Z,9.73
2019-04-30T03:30:57.536Z,9.40
2019-04-30T03:33:32.202Z,10.37
2019-04-30T03:36:02.849Z,10.43
2019-04-30T03:38:32.594Z,10.87
2019-04-30T03:41:03.296Z,11.13
2019-04-30T03:43:35.891Z,11.50
2019-04-30T03:46:10.096Z,12.20
2019-04-30T03:48:43.019Z,12.67
2019-04-30T03:51:15.671Z,12.97
2019-04-30T03:53:46.187Z,13.50
2019-04-30T03:56:20.008Z,15.20
2019-04-30T03:58:50.314Z,15.27
2019-04-30T04:01:29.479Z,15.87
2019-04-30T04:04:22.615Z,15.00
2019-04-30T04:07:20.515Z,15.80
2019-04-30T04:09:59.790Z,15.33
2019-04-30T04:12:31.336Z,17.10
2019-04-30T04:15:04.005Z,17.00
2019-04-30T04:17:33.041Z,16.43
2019-04-30T04:20:04.840Z,16.77
2019-04-30T04:22:35.422Z,17.60
2019-04-30T04:25:05.168Z,16.67
2019-04-30T04:27:34.962Z,16.53
2019-04-30T04:30:05.947Z,16.00
2019-04-30T04:32:35.464Z,16.13
2019-04-30T04:35:06.641Z,17.00
2019-04-30T04:37:39.476Z,16.47
2019-04-30T04:40:11.288Z,17.40
2019-04-30T04:42:40.843Z,16.30
2019-04-30T04:45:11.502Z,15.58
2019-04-30T04:47:41.026Z,16.33
2019-04-30T04:50:13.533Z,16.70
2019-04-30T04:52:43.019Z,15.83
2019-04-30T04:55:14.218Z,15.70
2019-04-30T04:57:43.843Z,17.23
2019-04-30T05:00:14.846Z,17.87
2019-04-30T05:03:09.438Z,16.43
2019-04-30T05:05:39.894Z,15.90
2019-04-30T05:08:10.987Z,15.30
2019-04-30T05:10:41.701Z,16.40
2019-04-30T05:13:13.651Z,15.47
2019-04-30T05:15:44.145Z,15.40
2019-04-30T05:18:14.576Z,17.60
2019-04-30T05:20:43.978Z,17.07
2019-04-30T05:23:15.241Z,15.97
2019-04-30T05:25:45.912Z,17.07
2019-04-30T05:28:15.566Z,17.13
2019-04-30T05:30:46.981Z,16.43
2019-04-30T05:33:18.515Z,17.17
2019-04-30T05:35:49.610Z,16.30
2019-04-30T05:38:21.045Z,17.13
2019-04-30T05:40:50.720Z,17.23
2019-04-30T05:43:20.322Z,17.40
2019-04-30T05:45:49.874Z,17.83
2019-04-30T05:48:19.583Z,18.07
2019-04-30T05:50:51.798Z,20.03
2019-04-30T05:53:21.084Z,18.50
2019-04-30T05:55:50.568Z,20.33
2019-04-30T05:58:20.026Z,18.67
2019-04-30T06:00:49.898Z,18.77
2019-04-30T06:03:28.100Z,20.07
2019-04-30T06:05:54.235Z,20.47
2019-04-30T06:08:26.813Z,20.60
2019-04-30T06:11:03.403Z,22.23
2019-04-30T06:13:58.900Z,22.10
2019-04-30T06:16:29.855Z,22.10
2019-04-30T06:18:59.657Z,21.60
2019-04-30T06:21:29.551Z,21.23
2019-04-30T06:23:59.377Z,23.23
2019-04-30T06:26:29.612Z,23.90
2019-04-30T06:28:59.366Z,22.93
2019-04-30T06:31:34.284Z,23.07
2019-04-30T06:34:02.620Z,25.00
2019-04-30T06:36:32.530Z,24.07
2019-04-30T06:39:02.253Z,21.93
2019-04-30T06:41:33.159Z,22.50
2019-04-30T06:44:05.173Z,23.33
2019-04-30T06:46:34.783Z,23.40
2019-04-30T06:49:05.413Z,23.97
2019-04-30T06:51:34.987Z,22.60
2019-04-30T06:54:05.572Z,22.63
2019-04-30T06:56:38.713Z,22.67
2019-04-30T06:59:09.303Z,23.20
2019-04-30T07:01:40.004Z,22.07
2019-04-30T07:04:10.563Z,23.20
2019-04-30T07:06:45.089Z,22.37
2019-04-30T07:09:51.487Z,22.17
2019-04-30T07:12:27.778Z,23.33
2019-04-30T07:14:59.073Z,21.47
2019-04-30T07:17:29.634Z,21.43
2019-04-30T07:19:59.671Z,23.23
2019-04-30T07:22:40.205Z,23.70
2019-04-30T07:25:05.061Z,21.43
2019-04-30T07:27:34.712Z,21.90
2019-04-30T07:30:04.344Z,21.07
2019-04-30T07:32:38.705Z,20.70
2019-04-30T07:35:09.765Z,20.60
2019-04-30T07:37:39.433Z,20.53
2019-04-30T07:40:09.645Z,19.33
2019-04-30T07:42:44.732Z,18.83
2019-04-30T07:45:10.550Z,17.33
2019-04-30T07:47:40.464Z,17.43
2019-04-30T07:50:12.266Z,16.23
2019-04-30T07:53:01.099Z,16.47
2019-04-30T07:55:19.437Z,16.20
2019-04-30T07:57:50.856Z,15.80
2019-04-30T08:00:20.532Z,14.00
2019-04-30T08:02:59.837Z,11.97
2019-04-30T08:05:40.148Z,12.43
2019-04-30T08:08:20.974Z,12.50
2019-04-30T08:10:41.820Z,12.00
2019-04-30T08:13:14.877Z,12.43
2019-04-30T08:15:44.374Z,12.10
2019-04-30T08:18:13.863Z,11.90
2019-04-30T08:20:43.472Z,12.57
2019-04-30T08:23:30.559Z,11.93
2019-04-30T08:25:46.177Z,11.23
2019-04-30T08:28:15.765Z,12.13
2019-04-30T08:30:48.879Z,11.00
2019-04-30T08:33:20.027Z,10.78
2019-04-30T08:35:50.463Z,11.25
2019-04-30T08:38:20.297Z,10.57
2019-04-30T08:40:56.209Z,11.07
2019-04-30T08:43:23.000Z,11.18
2019-04-30T08:45:52.511Z,10.38
2019-04-30T08:48:22.095Z,10.98
2019-04-30T08:50:53.541Z,10.28
2019-04-30T08:53:29.334Z,10.55
2019-04-30T08:55:55.854Z,10.40
2019-04-30T08:58:25.603Z,11.05
2019-04-30T09:00:58.761Z,10.72
2019-04-30T09:03:29.616Z,10.80
2019-04-30T09:06:09.340Z,11.57
2019-04-30T09:08:40.278Z,10.82
2019-04-30T09:11:21.845Z,11.10
2019-04-30T09:13:43.314Z,11.20
2019-04-30T09:16:13.949Z,11.53
2019-04-30T09:18:43.519Z,9.97
2019-04-30T09:21:13.112Z,10.50
2019-04-30T09:23:49.897Z,12.07
2019-04-30T09:26:16.261Z,11.73
2019-04-30T09:28:46.999Z,11.37
2019-04-30T09:31:16.796Z,11.20
2019-04-30T09:33:49.175Z,11.70
2019-04-30T09:36:20.860Z,11.57
2019-04-30T09:38:51.979Z,10.80
2019-04-30T09:41:21.577Z,11.75
2019-04-30T09:43:52.490Z,12.00
2019-04-30T09:46:26.696Z,10.73
2019-04-30T09:48:54.299Z,12.00
2019-04-30T09:51:26.444Z,11.93
2019-04-30T09:54:00.527Z,10.93
2019-04-30T09:56:30.850Z,11.23
2019-04-30T09:59:00.335Z,12.13
2019-04-30T10:01:32.515Z,12.57
2019-04-30T10:04:01.490Z,12.60
2019-04-30T10:06:39.788Z,13.60
2019-04-30T10:09:05.249Z,12.97
2019-04-30T10:11:50.090Z,12.83
2019-04-30T10:14:20.811Z,15.07
2019-04-30T10:17:09.522Z,14.60
2019-04-30T10:19:40.155Z,14.43
2019-04-30T10:22:09.574Z,14.17
2019-04-30T10:24:40.627Z,13.63
2019-04-30T10:27:13.072Z,14.60
2019-04-30T10:29:42.070Z,14.73
2019-04-30T10:32:12.935Z,14.27
2019-04-30T10:34:42.560Z,14.47
2019-04-30T10:37:12.009Z,14.27
2019-04-30T10:39:42.671Z,14.47
2019-04-30T10:42:12.331Z,12.93
2019-04-30T10:44:41.818Z,11.90
2019-04-30T10:47:11.666Z,13.63
2019-04-30T10:49:41.356Z,13.70
2019-04-30T10:52:12.704Z,13.90
2019-04-30T10:54:42.213Z,14.40
2019-04-30T10:57:11.893Z,14.93
2019-04-30T10:59:44.678Z,13.97
2019-04-30T11:02:14.209Z,14.90
2019-04-30T11:04:45.008Z,14.50
2019-04-30T11:07:14.959Z,13.93
2019-04-30T11:09:44.577Z,14.90
2019-04-30T11:12:14.354Z,12.77
2019-04-30T11:14:45.658Z,12.93
2019-04-30T11:17:15.441Z,13.73
2019-04-30T11:19:45.430Z,13.13
2019-04-30T11:22:15.104Z,13.23
2019-04-30T11:24:58.395Z,14.13
2019-04-30T11:27:22.934Z,14.87
2019-04-30T11:30:01.460Z,13.77
2019-04-30T11:32:27.210Z,14.57
2019-04-30T11:34:59.985Z,14.00
2019-04-30T11:37:29.623Z,13.03
2019-04-30T11:39:59.371Z,12.07
2019-04-30T11:42:28.925Z,13.83
2019-04-30T11:45:00.273Z,13.83
2019-04-30T11:47:33.834Z,13.20
2019-04-30T11:50:05.543Z,12.50
2019-04-30T11:53:25.377Z,13.40
2019-04-30T11:55:51.796Z,14.70
2019-04-30T11:58:25.616Z,14.50
2019-04-30T12:01:19.417Z,14.17
2019-04-30T12:03:59.809Z,15.77
2019-04-30T12:06:29.787Z,14.07
2019-04-30T12:09:13.410Z,15.73
2019-04-30T12:11:45.418Z,15.37
2019-04-30T12:14:16.082Z,15.80
2019-04-30T12:16:45.677Z,15.87
2019-04-30T12:19:15.221Z,16.47
2019-04-30T12:22:24.536Z,13.60
2019-04-30T12:25:02.548Z,16.33
2019-04-30T12:27:25.766Z,17.20
2019-04-30T12:29:59.431Z,17.30
2019-04-30T12:32:36.104Z,16.17
2019-04-30T12:35:05.985Z,16.97
2019-04-30T12:37:38.964Z,17.23
2019-04-30T12:40:25.558Z,17.67
2019-04-30T12:42:41.576Z,18.37
2019-04-30T12:45:13.045Z,17.40
2019-04-30T12:47:47.625Z,18.53
2019-04-30T12:50:30.417Z,17.47
2019-04-30T12:53:03.575Z,19.60
2019-04-30T12:55:52.979Z,20.00
2019-04-30T12:58:23.567Z,19.77
2019-04-30T13:00:54.160Z,19.80
2019-04-30T13:03:25.522Z,20.30
2019-04-30T13:05:56.767Z,18.97
2019-04-30T13:08:27.224Z,21.53
2019-04-30T13:10:57.684Z,20.23
2019-04-30T13:13:31.491Z,20.00
2019-04-30T13:16:00.036Z,22.50
2019-04-30T13:18:29.747Z,21.03
2019-04-30T13:21:03.180Z,22.20
2019-04-30T13:23:32.833Z,21.57
2019-04-30T13:26:02.454Z,21.47
2019-04-30T13:28:47.776Z,22.33
2019-04-30T13:31:19.364Z,22.67
2019-04-30T13:33:56.735Z,22.10
2019-04-30T13:36:26.686Z,20.47
2019-04-30T13:39:14.480Z,18.43
2019-04-30T13:41:51.236Z,22.80
2019-04-30T13:44:30.158Z,24.10
2019-04-30T13:46:59.593Z,21.37
2019-04-30T13:49:30.232Z,22.13
2019-04-30T13:51:59.830Z,24.50
2019-04-30T13:54:29.486Z,22.90
2019-04-30T13:56:59.154Z,23.03
2019-04-30T13:59:28.868Z,24.00
2019-04-30T14:01:58.863Z,24.77
2019-04-30T14:04:53.806Z,25.57
2019-04-30T14:07:49.985Z,24.27
2019-04-30T14:10:21.403Z,24.93
2019-04-30T14:12:54.282Z,25.67
2019-04-30T14:15:24.176Z,25.63
2019-04-30T14:17:53.994Z,24.53
2019-04-30T14:20:26.413Z,25.50
2019-04-30T14:22:57.554Z,23.23
2019-04-30T14:25:27.370Z,24.03
2019-04-30T14:27:56.976Z,24.37
2019-04-30T14:30:29.234Z,24.67
2019-04-30T14:32:59.502Z,24.40
2019-04-30T14:35:30.085Z,23.20
2019-04-30T14:38:01.149Z,26.27
2019-04-30T14:40:32.419Z,26.43
2019-04-30T14:43:16.494Z,25.97
2019-04-30T14:46:10.107Z,25.73
2019-04-30T14:48:46.419Z,25.33
2019-04-30T14:51:16.777Z,25.17
2019-04-30T14:54:11.019Z,25.57
2019-04-30T14:56:59.556Z,26.20
2019-04-30T14:59:50.776Z,24.80
2019-04-30T15:02:42.736Z,24.53
2019-04-30T15:05:12.352Z,24.43
2019-04-30T15:07:41.780Z,25.07
2019-04-30T15:10:12.324Z,25.93
2019-04-30T15:12:41.847Z,24.10
2019-04-30T15:15:11.537Z,24.37
2019-04-30T15:17:41.265Z,22.50
2019-04-30T15:20:12.221Z,23.07
2019-04-30T15:22:51.524Z,24.43
2019-04-30T15:25:20.922Z,23.23
2019-04-30T15:27:50.345Z,22.90
2019-04-30T15:30:22.001Z,25.57
2019-04-30T15:32:57.223Z,23.97
2019-04-30T15:35:26.867Z,25.63
2019-04-30T15:37:59.415Z,25.17
2019-04-30T15:40:30.540Z,25.73
2019-04-30T15:43:02.452Z,24.90
2019-04-30T15:45:32.219Z,22.90
2019-04-30T15:48:01.799Z,24.27
2019-04-30T15:50:31.386Z,25.47
2019-04-30T15:53:03.454Z,24.40
2019-04-30T15:55:32.877Z,23.90
2019-04-30T15:58:09.698Z,24.27
2019-04-30T16:00:39.416Z,25.53
2019-04-30T16:03:15.654Z,25.60
2019-04-30T16:05:48.072Z,22.93
2019-04-30T16:08:29.043Z,23.03
2019-04-30T16:11:29.466Z,25.00
2019-04-30T16:14:19.303Z,24.73
2019-04-30T16:16:57.772Z,25.67
2019-04-30T16:19:29.003Z,25.37
2019-04-30T16:22:00.232Z,25.20
2019-04-30T16:24:29.761Z,25.27
2019-04-30T16:26:59.551Z,25.53
2019-04-30T16:29:28.881Z,26.30
2019-04-30T16:31:59.407Z,26.00
2019-04-30T16:34:30.474Z,25.23
2019-04-30T16:37:00.131Z,27.57
2019-04-30T16:39:29.677Z,26.20
2019-04-30T16:42:00.266Z,26.07
2019-04-30T16:44:31.269Z,25.97
2019-04-30T16:47:13.040Z,24.60
2019-04-30T16:49:33.388Z,25.43
2019-04-30T16:52:04.797Z,24.67
2019-04-30T16:54:35.233Z,24.70
2019-04-30T16:57:06.977Z,25.87
2019-04-30T16:59:41.048Z,25.20
2019-04-30T17:02:13.095Z,24.17
2019-04-30T17:04:50.757Z,26.70
2019-04-30T17:07:41.640Z,26.40
2019-04-30T17:10:23.351Z,27.90
2019-04-30T17:13:10.945Z,27.00
2019-04-30T17:19:19.096Z,28.67
2019-04-30T17:21:56.543Z,26.97
2019-04-30T17:24:27.284Z,27.17
2019-04-30T17:26:59.287Z,29.07
2019-04-30T17:29:37.902Z,28.93
2019-04-30T17:32:16.357Z,27.70
2019-04-30T17:34:58.768Z,28.40
2019-04-30T17:37:31.582Z,30.53
2019-04-30T17:40:03.763Z,28.13
2019-04-30T17:42:33.405Z,28.60
2019-04-30T17:45:04.957Z,29.37
2019-04-30T17:47:34.714Z,31.87
2019-04-30T17:50:05.710Z,31.13
2019-04-30T17:52:36.368Z,31.77
2019-04-30T17:55:09.717Z,31.43
2019-04-30T17:57:40.542Z,32.03
2019-04-30T18:00:18.701Z,32.67
2019-04-30T18:02:44.360Z,31.57
2019-04-30T18:05:15.407Z,32.00
2019-04-30T18:07:44.929Z,29.30
2019-04-30T18:10:16.170Z,31.83
2019-04-30T18:12:47.286Z,29.57
2019-04-30T18:15:22.194Z,31.17
2019-04-30T18:18:01.388Z,27.97
2019-04-30T18:20:40.727Z,30.43
2019-04-30T18:23:42.881Z,27.47
2019-04-30T18:26:14.412Z,28.77
2019-04-30T18:28:44.098Z,29.53
2019-04-30T18:31:13.642Z,28.23
2019-04-30T18:33:43.333Z,27.90
2019-04-30T18:36:12.860Z,27.83
2019-04-30T18:38:42.363Z,27.73
2019-04-30T18:41:14.836Z,27.33
2019-04-30T18:43:45.357Z,27.60
2019-04-30T18:46:15.061Z,27.40
2019-04-30T18:48:44.561Z,28.53
2019-04-30T18:51:30.310Z,28.43
2019-04-30T18:53:49.389Z,27.50
2019-04-30T18:56:19.250Z,27.90
2019-04-30T18:58:48.787Z,26.97
2019-04-30T19:01:19.324Z,26.07
2019-04-30T19:03:50.030Z,27.40
2019-04-30T19:06:26.110Z,25.53
2019-04-30T19:09:15.518Z,28.37
2019-04-30T19:11:50.872Z,27.87
2019-04-30T19:14:31.128Z,28.17
2019-04-30T19:17:20.775Z,28.23
2019-04-30T19:20:01.752Z,29.00
2019-04-30T19:22:32.474Z,28.73
2019-04-30T19:25:04.464Z,29.23
2019-04-30T19:27:35.551Z,29.77
2019-04-30T19:30:06.255Z,29.87
2019-04-30T19:32:39.059Z,30.57
2019-04-30T19:35:09.743Z,31.57
2019-04-30T19:37:40.384Z,28.53
2019-04-30T19:40:10.217Z,30.67
2019-04-30T19:42:39.859Z,29.43
2019-04-30T19:45:12.426Z,26.87
2019-04-30T19:47:42.145Z,30.27
2019-04-30T19:50:14.200Z,29.00
2019-04-30T19:52:43.988Z,31.07
2019-04-30T19:55:14.841Z,30.73
2019-04-30T19:57:45.785Z,29.90
2019-04-30T20:00:15.622Z,27.33
2019-04-30T20:02:48.696Z,28.43
2019-04-30T20:05:19.425Z,27.33
2019-04-30T20:07:49.414Z,25.67
2019-04-30T20:10:19.581Z,28.57
2019-04-30T20:12:49.697Z,30.13
2019-04-30T20:15:22.194Z,29.00
2019-04-30T20:17:51.805Z,30.73
2019-04-30T20:20:22.433Z,29.37
2019-04-30T20:22:53.181Z,29.50
2019-04-30T20:25:22.727Z,29.40
2019-04-30T20:27:52.828Z,30.27
2019-04-30T20:30:23.305Z,33.13
2019-04-30T20:32:54.024Z,30.80
2019-04-30T20:35:24.006Z,29.07
2019-04-30T20:38:12.825Z,32.23
2019-04-30T20:40:57.753Z,34.77
2019-04-30T20:43:18.534Z,31.70
2019-04-30T20:45:49.461Z,32.73
2019-04-30T20:48:22.183Z,32.87
2019-04-30T20:50:54.834Z,32.17
2019-04-30T20:53:24.447Z,32.77
2019-04-30T20:55:55.225Z,34.53
2019-04-30T20:58:26.636Z,38.20
2019-04-30T21:01:03.379Z,37.30
2019-04-30T21:03:29.586Z,36.97
2019-04-30T21:06:00.587Z,42.33
2019-04-30T21:08:32.372Z,41.03
2019-04-30T21:11:03.190Z,42.20
2019-04-30T21:13:32.815Z,40.33
2019-04-30T21:16:02.401Z,40.63
2019-04-30T21:18:32.625Z,42.03
2019-04-30T21:21:02.122Z,41.33
2019-04-30T21:23:32.137Z,38.00
2019-04-30T21:26:04.404Z,37.03
2019-04-30T21:28:34.043Z,33.97
2019-04-30T21:31:22.361Z,35.20
2019-04-30T21:33:58.258Z,38.47
2019-04-30T21:36:29.080Z,46.00
2019-04-30T21:38:59.687Z,48.80
2019-04-30T21:41:29.779Z,52.93
2019-04-30T21:44:01.594Z,49.53
2019-04-30T21:46:31.077Z,51.30
2019-04-30T21:49:01.690Z,51.37
2019-04-30T21:51:31.397Z,51.20
2019-04-30T21:54:01.046Z,48.53
2019-04-30T21:56:31.687Z,48.90
2019-04-30T21:59:01.274Z,48.00
2019-04-30T22:01:32.653Z,45.87
2019-04-30T22:04:02.163Z,44.23
2019-04-30T22:06:32.841Z,45.37
2019-04-30T22:09:03.594Z,45.23
2019-04-30T22:11:33.233Z,46.20
2019-04-30T22:14:05.205Z,43.70
2019-04-30T22:16:36.671Z,47.43
2019-04-30T22:19:08.124Z,46.73
2019-04-30T22:21:40.431Z,46.60
2019-04-30T22:24:09.894Z,44.43
2019-04-30T22:26:40.035Z,43.30
2019-04-30T22:29:09.747Z,41.50
2019-04-30T22:31:39.686Z,41.30
2019-04-30T22:34:09.317Z,38.53
2019-04-30T22:36:44.103Z,39.30
2019-04-30T22:39:33.416Z,40.08
2019-04-30T22:42:30.132Z,37.60
2019-04-30T22:45:01.809Z,39.47
2019-04-30T22:47:34.029Z,38.50
2019-04-30T22:50:05.200Z,38.50
2019-04-30T22:52:36.509Z,38.53
2019-04-30T22:55:07.497Z,36.77
2019-04-30T22:57:37.188Z,35.83
2019-04-30T23:00:10.133Z,33.00
2019-04-30T23:02:47.872Z,33.10
2019-04-30T23:05:18.689Z,33.73
2019-04-30T23:07:49.996Z,34.13
2019-04-30T23:10:23.797Z,33.40
2019-04-30T23:12:54.415Z,30.73
2019-04-30T23:15:24.534Z,31.53
2019-04-30T23:17:54.156Z,30.20
2019-04-30T23:20:23.766Z,31.23
2019-04-30T23:22:54.368Z,30.70
2019-04-30T23:25:25.051Z,30.43
2019-04-30T23:27:55.106Z,31.87
2019-04-30T23:30:25.640Z,32.13
2019-04-30T23:32:56.480Z,35.03
2019-04-30T23:35:28.446Z,34.07
2019-04-30T23:37:58.248Z,34.10
2019-04-30T23:40:35.184Z,32.80
2019-04-30T23:43:04.840Z,31.50
2019-04-30T23:45:34.399Z,31.87
2019-04-30T23:48:03.951Z,28.03
2019-04-30T23:50:34.509Z,31.20
2019-04-30T23:53:04.029Z,32.00
2019-04-30T23:55:34.854Z,29.57
2019-04-30T23:58:04.662Z,28.93
